createdAt,value
2023-04-26T00:00:01.710Z,88.4954
2023-04-26T00:01:09.811Z,88.1987
2023-04-26T00:02:17.889Z,88.0341
2023-04-26T00:03:25.823Z,88.0852
2023-04-26T00:04:33.979Z,88.6568
2023-04-26T00:05:41.994Z,89.3588
2023-04-26T00:06:50.133Z,89.9356
2023-04-26T00:07:58.105Z,90.6735
2023-04-26T00:09:06.145Z,91.1450
2023-04-26T00:10:14.167Z,91.9866
2023-04-26T00:11:22.267Z,92.3738
2023-04-26T00:12:30.327Z,92.6776
2023-04-26T00:13:38.476Z,92.6444
2023-04-26T00:14:46.478Z,92.5784
2023-04-26T00:15:54.471Z,92.3636
2023-04-26T00:17:02.409Z,92.1173
2023-04-26T00:18:10.554Z,92.0892
2023-04-26T00:19:18.514Z,92.0889
2023-04-26T00:20:26.764Z,92.1140
2023-04-26T00:21:34.739Z,92.1170
2023-04-26T00:22:42.968Z,92.1326
2023-04-26T00:23:50.871Z,91.9380
2023-04-26T00:24:58.913Z,91.6253
2023-04-26T00:26:07.035Z,91.2595
2023-04-26T00:27:15.013Z,91.0000
2023-04-26T00:28:23.102Z,90.8985
2023-04-26T00:29:31.274Z,90.9913
2023-04-26T00:30:39.333Z,90.9787
2023-04-26T00:31:47.265Z,90.7858
2023-04-26T00:32:55.311Z,90.8771
2023-04-26T00:34:03.350Z,90.8586
2023-04-26T00:35:11.464Z,90.9646
2023-04-26T00:36:19.614Z,90.9417
2023-04-26T00:37:27.597Z,90.8188
2023-04-26T00:38:35.762Z,90.7681
2023-04-26T00:39:43.715Z,90.2323
2023-04-26T00:40:51.787Z,89.8624
2023-04-26T00:41:59.837Z,89.7409
2023-04-26T00:43:07.970Z,89.6771
2023-04-26T00:44:15.927Z,89.4733
2023-04-26T00:45:24.019Z,89.4410
2023-04-26T00:46:31.925Z,89.4439
2023-04-26T00:47:40.032Z,89.5129
2023-04-26T00:48:48.066Z,89.3987
2023-04-26T00:49:56.251Z,89.3610
2023-04-26T00:51:04.276Z,89.2449
2023-04-26T00:52:12.344Z,89.4330
2023-04-26T00:53:20.389Z,89.2609
2023-04-26T00:54:28.679Z,89.0540
2023-04-26T00:55:36.769Z,88.9781
2023-04-26T00:56:44.538Z,88.9459
2023-04-26T00:57:52.608Z,88.7201
2023-04-26T00:59:00.683Z,88.5531
2023-04-26T01:00:08.777Z,88.4673
2023-04-26T01:01:16.651Z,88.4568
2023-04-26T01:02:24.805Z,88.3447
2023-04-26T01:03:32.959Z,88.4672
2023-04-26T01:04:41.041Z,88.9707
2023-04-26T01:05:49.066Z,89.2682
2023-04-26T01:06:57.106Z,89.6204
2023-04-26T01:08:05.201Z,89.6871
2023-04-26T01:09:13.263Z,89.3066
2023-04-26T01:10:21.380Z,89.0399
2023-04-26T01:11:29.398Z,88.8959
2023-04-26T01:12:37.390Z,88.5682
2023-04-26T01:13:45.434Z,88.5328
2023-04-26T01:14:53.361Z,88.4879
2023-04-26T01:16:01.415Z,88.4214
2023-04-26T01:17:09.516Z,88.4798
2023-04-26T01:18:17.528Z,88.7836
2023-04-26T01:19:25.772Z,89.1765
2023-04-26T01:20:33.765Z,89.3870
2023-04-26T01:21:41.878Z,89.6627
2023-04-26T01:22:49.982Z,90.0178
2023-04-26T01:23:57.943Z,90.0272
2023-04-26T01:25:06.055Z,90.0788
2023-04-26T01:26:14.259Z,90.1610
2023-04-26T01:27:22.152Z,90.2371
2023-04-26T01:28:30.228Z,90.4818
2023-04-26T01:29:38.327Z,90.6097
2023-04-26T01:30:46.208Z,90.6539
2023-04-26T01:31:54.201Z,90.7114
2023-04-26T01:33:02.290Z,90.6611
2023-04-26T01:34:10.526Z,90.4717
2023-04-26T01:35:18.538Z,90.2298
2023-04-26T01:36:26.695Z,90.0750
2023-04-26T01:37:34.674Z,89.7102
2023-04-26T01:38:42.702Z,89.6046
2023-04-26T01:39:50.827Z,89.6435
2023-04-26T01:40:58.823Z,89.6894
2023-04-26T01:42:06.896Z,89.9899
2023-04-26T01:43:15.070Z,90.0602
2023-04-26T01:44:23.030Z,90.0410
2023-04-26T01:45:30.970Z,90.1885
2023-04-26T01:46:39.132Z,90.1720
2023-04-26T01:47:47.069Z,89.7401
2023-04-26T01:48:55.333Z,89.1915
2023-04-26T01:50:03.302Z,89.1152
2023-04-26T01:51:11.469Z,88.9650
2023-04-26T01:52:19.417Z,88.6772
2023-04-26T01:53:27.567Z,88.6651
2023-04-26T01:54:35.593Z,88.7102
2023-04-26T01:55:43.556Z,88.5560
2023-04-26T01:56:51.682Z,88.3935
2023-04-26T01:57:59.746Z,88.1877
2023-04-26T01:59:07.749Z,87.6976
2023-04-26T02:00:15.681Z,87.2721
2023-04-26T02:01:23.861Z,87.4698
2023-04-26T02:02:31.871Z,87.9121
2023-04-26T02:03:40.047Z,88.2718
2023-04-26T02:04:48.106Z,88.1362
2023-04-26T02:05:56.105Z,88.3493
2023-04-26T02:07:04.155Z,89.0657
2023-04-26T02:08:12.273Z,89.4687
2023-04-26T02:09:20.214Z,90.1180
2023-04-26T02:10:28.326Z,90.5616
2023-04-26T02:11:36.360Z,90.7540
2023-04-26T02:12:44.510Z,90.3756
2023-04-26T02:13:52.538Z,89.6903
2023-04-26T02:15:00.432Z,89.7511
2023-04-26T02:16:08.531Z,90.0756
2023-04-26T02:17:16.544Z,90.6562
2023-04-26T02:18:24.732Z,90.5359
2023-04-26T02:19:32.818Z,90.4047
2023-04-26T02:20:40.967Z,90.0089
2023-04-26T02:21:48.889Z,89.3256
2023-04-26T02:22:56.969Z,88.7481
2023-04-26T02:24:05.028Z,88.5408
2023-04-26T02:25:13.083Z,88.2578
2023-04-26T02:26:21.211Z,88.3154
2023-04-26T02:27:29.161Z,88.3236
2023-04-26T02:28:37.257Z,88.3971
2023-04-26T02:29:45.156Z,88.4091
2023-04-26T02:30:53.268Z,88.0022
2023-04-26T02:32:01.294Z,87.9692
2023-04-26T02:33:09.647Z,88.6111
2023-04-26T02:34:17.530Z,88.7442
2023-04-26T02:35:25.606Z,88.4245
2023-04-26T02:36:33.715Z,89.1137
2023-04-26T02:37:41.734Z,89.3994
2023-04-26T02:38:50.120Z,89.1774
2023-04-26T02:39:57.801Z,88.9326
2023-04-26T02:41:05.901Z,88.6692
2023-04-26T02:42:13.998Z,88.4133
2023-04-26T02:43:22.000Z,88.2337
2023-04-26T02:44:29.912Z,88.1362
2023-04-26T02:45:37.969Z,88.2920
2023-04-26T02:46:46.036Z,88.2117
2023-04-26T02:47:54.286Z,88.4882
2023-04-26T02:49:02.390Z,89.2434
2023-04-26T02:50:10.346Z,89.7089
2023-04-26T02:51:18.395Z,89.7712
2023-04-26T02:52:26.489Z,89.5354
2023-04-26T02:53:34.537Z,89.9643
2023-04-26T02:54:42.667Z,90.3884
2023-04-26T02:55:50.737Z,90.7186
2023-04-26T02:56:58.694Z,90.9163
2023-04-26T02:58:06.815Z,91.1945
2023-04-26T02:59:14.703Z,91.3535
2023-04-26T03:00:22.724Z,91.0490
2023-04-26T03:01:30.899Z,91.1917
2023-04-26T03:02:39.144Z,90.8404
2023-04-26T03:03:47.186Z,90.4183
2023-04-26T03:04:55.369Z,90.1981
2023-04-26T03:06:03.256Z,90.0720
2023-04-26T03:07:11.306Z,90.0815
2023-04-26T03:08:19.361Z,90.0020
2023-04-26T03:09:27.414Z,90.0819
2023-04-26T03:10:35.525Z,90.0209
2023-04-26T03:11:43.545Z,89.7657
2023-04-26T03:12:51.712Z,89.9468
2023-04-26T03:13:59.499Z,90.2078
2023-04-26T03:15:07.624Z,90.5422
2023-04-26T03:16:15.737Z,90.9734
2023-04-26T03:17:23.866Z,91.1853
2023-04-26T03:18:31.887Z,91.5531
2023-04-26T03:19:39.928Z,91.7742
2023-04-26T03:20:48.131Z,91.4679
2023-04-26T03:21:56.158Z,91.4775
2023-04-26T03:23:04.097Z,91.5691
2023-04-26T03:24:12.219Z,91.7094
2023-04-26T03:25:20.331Z,91.5391
2023-04-26T03:26:28.265Z,91.0392
2023-04-26T03:27:36.426Z,90.4433
2023-04-26T03:28:44.273Z,90.2550
2023-04-26T03:29:52.328Z,90.2592
2023-04-26T03:31:00.382Z,90.6014
2023-04-26T03:32:08.638Z,90.9527
2023-04-26T03:33:16.646Z,91.0555
2023-04-26T03:34:24.713Z,90.8338
2023-04-26T03:35:32.738Z,90.6619
2023-04-26T03:36:40.933Z,90.8148
2023-04-26T03:37:48.857Z,90.9617
2023-04-26T03:38:56.989Z,91.0142
2023-04-26T03:40:04.939Z,91.0440
2023-04-26T03:41:13.034Z,91.1135
2023-04-26T03:42:21.071Z,91.2393
2023-04-26T03:43:28.990Z,91.3428
2023-04-26T03:44:37.102Z,91.4755
2023-04-26T03:45:45.120Z,91.5673
2023-04-26T03:46:53.285Z,91.6485
2023-04-26T03:48:01.397Z,91.6169
2023-04-26T03:49:09.386Z,91.6178
2023-04-26T03:50:17.514Z,91.6676
2023-04-26T03:51:25.521Z,91.6323
2023-04-26T03:52:33.691Z,91.2590
2023-04-26T03:53:41.632Z,91.3370
2023-04-26T03:54:49.701Z,91.1367
2023-04-26T03:55:57.843Z,90.8554
2023-04-26T03:57:05.806Z,90.6263
2023-04-26T03:58:13.725Z,90.5085
2023-04-26T03:59:21.774Z,90.6570
2023-04-26T04:00:29.829Z,90.7111
2023-04-26T04:01:38.055Z,90.3707
2023-04-26T04:02:46.113Z,90.2986
2023-04-26T04:03:54.246Z,90.2672
2023-04-26T04:05:02.172Z,90.4092
2023-04-26T04:06:10.237Z,91.0566
2023-04-26T04:07:18.284Z,91.3760
2023-04-26T04:08:26.466Z,91.7795
2023-04-26T04:09:34.409Z,91.4573
2023-04-26T04:10:42.423Z,91.4542
2023-04-26T04:11:50.513Z,91.2479
2023-04-26T04:12:58.483Z,90.9200
2023-04-26T04:14:06.484Z,90.7942
2023-04-26T04:15:14.543Z,90.9117
2023-04-26T04:16:22.873Z,91.2921
2023-04-26T04:17:30.769Z,91.2473
2023-04-26T04:18:38.868Z,91.3645
2023-04-26T04:19:46.887Z,91.2955
2023-04-26T04:20:54.941Z,91.3267
2023-04-26T04:22:02.994Z,91.4708
2023-04-26T04:23:11.133Z,91.4431
2023-04-26T04:24:19.142Z,91.2806
2023-04-26T04:25:27.512Z,91.3251
2023-04-26T04:26:35.098Z,91.3375
2023-04-26T04:27:43.171Z,91.3855
2023-04-26T04:28:51.347Z,91.5601
2023-04-26T04:29:59.488Z,91.8045
2023-04-26T04:31:07.640Z,91.8916
2023-04-26T04:32:15.481Z,91.9377
2023-04-26T04:33:23.668Z,92.0550
2023-04-26T04:34:31.595Z,91.9320
2023-04-26T04:35:39.674Z,91.8345
2023-04-26T04:36:47.729Z,91.7220
2023-04-26T04:37:55.939Z,91.7584
2023-04-26T04:39:03.857Z,91.8315
2023-04-26T04:40:12.126Z,91.7969
2023-04-26T04:41:19.872Z,91.8587
2023-04-26T04:42:27.905Z,91.5921
2023-04-26T04:43:36.154Z,91.4419
2023-04-26T04:44:44.128Z,91.5387
2023-04-26T04:45:52.310Z,91.2803
2023-04-26T04:47:00.388Z,91.5560
2023-04-26T04:48:08.369Z,91.6508
2023-04-26T04:49:16.513Z,91.6481
2023-04-26T04:50:24.432Z,91.8504
2023-04-26T04:51:32.495Z,91.6390
2023-04-26T04:52:40.586Z,91.6256
2023-04-26T04:53:48.569Z,91.6591
2023-04-26T04:54:56.795Z,91.6724
2023-04-26T04:56:04.557Z,91.6488
2023-04-26T04:57:12.626Z,91.7318
2023-04-26T04:58:20.706Z,91.5635
2023-04-26T04:59:28.809Z,91.1527
2023-04-26T05:00:36.895Z,90.8672
2023-04-26T05:01:45.140Z,90.8390
2023-04-26T05:02:53.164Z,91.0153
2023-04-26T05:04:01.277Z,90.9631
2023-04-26T05:05:09.392Z,90.2459
2023-04-26T05:06:17.168Z,90.1493
2023-04-26T05:07:26.362Z,90.3253
2023-04-26T05:08:38.179Z,90.4337
2023-04-26T05:09:46.108Z,90.3433
2023-04-26T05:10:54.148Z,90.2626
2023-04-26T05:12:02.219Z,90.6320
2023-04-26T05:13:10.458Z,90.6992
2023-04-26T05:14:18.575Z,90.7623
2023-04-26T05:15:26.564Z,90.8306
2023-04-26T05:16:34.688Z,91.0708
2023-04-26T05:17:42.631Z,90.8538
2023-04-26T05:18:50.695Z,90.3982
2023-04-26T05:19:58.893Z,90.2740
2023-04-26T05:21:06.807Z,90.1505
2023-04-26T05:22:14.812Z,89.7641
2023-04-26T05:23:22.930Z,89.9278
2023-04-26T05:24:30.829Z,89.9732
2023-04-26T05:25:38.900Z,89.9718
2023-04-26T05:26:46.987Z,89.9593
2023-04-26T05:27:55.124Z,89.6757
2023-04-26T05:29:03.427Z,89.7028
2023-04-26T05:30:11.274Z,89.8285
2023-04-26T05:31:19.340Z,89.8951
2023-04-26T05:32:27.414Z,89.8753
2023-04-26T05:33:35.428Z,89.7906
2023-04-26T05:34:43.471Z,89.8229
2023-04-26T05:35:51.500Z,89.6886
2023-04-26T05:36:59.776Z,89.8363
2023-04-26T05:38:07.645Z,89.7409
2023-04-26T05:39:15.562Z,89.7241
2023-04-26T05:40:23.611Z,89.5602
2023-04-26T05:41:31.692Z,89.5528
2023-04-26T05:42:39.894Z,89.7560
2023-04-26T05:43:48.019Z,89.4887
2023-04-26T05:44:56.003Z,89.4593
2023-04-26T05:46:04.083Z,89.3947
2023-04-26T05:47:12.037Z,89.1328
2023-04-26T05:48:20.113Z,89.0898
2023-04-26T05:49:28.200Z,89.1512
2023-04-26T05:50:37.690Z,89.4058
2023-04-26T05:51:49.146Z,89.4463
2023-04-26T05:52:57.112Z,89.7591
2023-04-26T05:54:05.180Z,89.5597
2023-04-26T05:55:13.346Z,89.8270
2023-04-26T05:56:21.408Z,89.6478
2023-04-26T05:57:29.539Z,89.5399
2023-04-26T05:58:37.507Z,89.1395
2023-04-26T05:59:45.558Z,88.9316
2023-04-26T06:00:53.775Z,89.3715
2023-04-26T06:02:01.764Z,89.3811
2023-04-26T06:03:10.093Z,89.2298
2023-04-26T06:04:17.918Z,88.9325
2023-04-26T06:05:26.040Z,88.6355
2023-04-26T06:06:33.998Z,88.2077
2023-04-26T06:07:41.861Z,88.2209
2023-04-26T06:08:49.906Z,88.4172
2023-04-26T06:09:57.982Z,88.5085
2023-04-26T06:11:06.206Z,88.3260
2023-04-26T06:12:14.256Z,87.8037
2023-04-26T06:13:22.321Z,87.3610
2023-04-26T06:14:30.952Z,86.9712
2023-04-26T06:15:38.386Z,86.8655
2023-04-26T06:16:46.699Z,86.6376
2023-04-26T06:17:54.606Z,86.4765
2023-04-26T06:19:02.549Z,86.4904
2023-04-26T06:20:10.608Z,86.7413
2023-04-26T06:21:18.683Z,86.7645
2023-04-26T06:22:26.607Z,87.2625
2023-04-26T06:23:34.722Z,87.3650
2023-04-26T06:24:42.746Z,87.4383
2023-04-26T06:25:51.002Z,87.6100
2023-04-26T06:26:58.894Z,87.3850
2023-04-26T06:28:07.012Z,86.9232
2023-04-26T06:29:15.048Z,86.6738
2023-04-26T06:30:23.111Z,86.4673
2023-04-26T06:31:31.282Z,86.3102
2023-04-26T06:32:39.259Z,85.7010
2023-04-26T06:33:47.286Z,85.2959
2023-04-26T06:34:55.400Z,84.9592
2023-04-26T06:36:03.359Z,84.7546
2023-04-26T06:37:11.334Z,85.3834
2023-04-26T06:38:19.355Z,85.7311
2023-04-26T06:39:27.412Z,85.7339
2023-04-26T06:40:35.665Z,85.9151
2023-04-26T06:41:43.795Z,85.7948
2023-04-26T06:42:51.700Z,85.3231
2023-04-26T06:43:59.746Z,84.8573
2023-04-26T06:45:07.827Z,84.7704
2023-04-26T06:46:15.973Z,84.0169
2023-04-26T06:47:23.988Z,83.6220
2023-04-26T06:48:32.133Z,83.5992
2023-04-26T06:49:40.055Z,83.7831
2023-04-26T06:50:48.133Z,83.7691
2023-04-26T06:51:56.127Z,83.4972
2023-04-26T06:53:04.111Z,83.9967
2023-04-26T06:54:12.148Z,83.4118
2023-04-26T06:55:20.417Z,82.7936
2023-04-26T06:56:28.379Z,83.4454
2023-04-26T06:57:36.639Z,84.2233
2023-04-26T06:58:44.547Z,84.6642
2023-04-26T06:59:52.535Z,84.6257
2023-04-26T07:01:00.620Z,84.7659
2023-04-26T07:02:08.902Z,84.3899
2023-04-26T07:03:16.887Z,84.7372
2023-04-26T07:04:24.920Z,84.9525
2023-04-26T07:05:32.731Z,85.6002
2023-04-26T07:06:40.768Z,84.8330
2023-04-26T07:07:48.845Z,84.8461
2023-04-26T07:08:57.440Z,84.6963
2023-04-26T07:10:05.043Z,85.3650
2023-04-26T07:11:13.252Z,85.0312
2023-04-26T07:12:21.251Z,84.5755
2023-04-26T07:13:29.336Z,84.0334
2023-04-26T07:14:39.495Z,83.8452
2023-04-26T07:15:50.308Z,82.7955
2023-04-26T07:16:58.336Z,81.9412
2023-04-26T07:18:06.450Z,82.3525
2023-04-26T07:19:14.290Z,83.0339
2023-04-26T07:20:22.383Z,83.9522
2023-04-26T07:21:30.396Z,84.1608
2023-04-26T07:22:38.593Z,84.0325
2023-04-26T07:23:46.658Z,83.7068
2023-04-26T07:24:54.690Z,83.9193
2023-04-26T07:26:02.799Z,83.0186
2023-04-26T07:27:10.826Z,82.6270
2023-04-26T07:28:18.798Z,82.5270
2023-04-26T07:29:27.190Z,82.4147
2023-04-26T07:30:34.981Z,83.0246
2023-04-26T07:31:43.084Z,83.7736
2023-04-26T07:32:51.183Z,83.8790
2023-04-26T07:33:59.004Z,84.0268
2023-04-26T07:35:07.049Z,84.0125
2023-04-26T07:36:15.123Z,83.8290
2023-04-26T07:37:23.477Z,83.5026
2023-04-26T07:38:31.347Z,82.9737
2023-04-26T07:39:39.401Z,83.5704
2023-04-26T07:40:47.458Z,83.6561
2023-04-26T07:41:55.542Z,83.7603
2023-04-26T07:43:03.618Z,83.9910
2023-04-26T07:44:11.724Z,83.4142
2023-04-26T07:45:19.619Z,83.6373
2023-04-26T07:46:27.793Z,83.0475
2023-04-26T07:47:35.824Z,82.1940
2023-04-26T07:48:43.756Z,81.5902
2023-04-26T07:49:51.763Z,81.4237
2023-04-26T07:50:59.831Z,81.7663
2023-04-26T07:52:08.092Z,82.0535
2023-04-26T07:53:16.196Z,82.4530
2023-04-26T07:54:24.156Z,82.2805
2023-04-26T07:55:32.165Z,82.5352
2023-04-26T07:56:40.240Z,81.9082
2023-04-26T07:57:48.283Z,81.3073
2023-04-26T07:58:56.569Z,81.1994
2023-04-26T08:00:04.594Z,80.2933
2023-04-26T08:01:12.447Z,79.5973
2023-04-26T08:02:27.107Z,79.7476
2023-04-26T08:03:33.532Z,80.0057
2023-04-26T08:04:41.588Z,80.1045
2023-04-26T08:05:49.600Z,79.8501
2023-04-26T08:06:57.673Z,79.9575
2023-04-26T08:08:05.668Z,79.6501
2023-04-26T08:09:14.192Z,79.7454
2023-04-26T08:10:21.804Z,79.8292
2023-04-26T08:11:29.893Z,79.0055
2023-04-26T08:12:37.872Z,78.6557
2023-04-26T08:13:45.989Z,78.2557
2023-04-26T08:14:53.986Z,79.2810
2023-04-26T08:16:02.034Z,79.0446
2023-04-26T08:17:10.400Z,78.6277
2023-04-26T08:18:18.087Z,78.2278
2023-04-26T08:19:26.071Z,76.6048
2023-04-26T08:20:34.099Z,75.7834
2023-04-26T08:21:42.324Z,75.4570
2023-04-26T08:22:50.413Z,76.0453
2023-04-26T08:23:58.491Z,75.1354
2023-04-26T08:25:06.596Z,75.0327
2023-04-26T08:26:14.792Z,74.8508
2023-04-26T08:27:22.587Z,73.2397
2023-04-26T08:28:30.619Z,74.3423
2023-04-26T08:29:38.683Z,74.4894
2023-04-26T08:30:46.818Z,75.3947
2023-04-26T08:31:54.729Z,75.4705
2023-04-26T08:33:02.727Z,75.6562
2023-04-26T08:34:10.881Z,75.8959
2023-04-26T08:35:18.805Z,75.8812
2023-04-26T08:36:26.981Z,75.1589
2023-04-26T08:37:35.086Z,75.1127
2023-04-26T08:38:43.093Z,76.2217
2023-04-26T08:39:51.177Z,76.6647
2023-04-26T08:40:59.394Z,76.6064
2023-04-26T08:42:07.249Z,76.4542
2023-04-26T08:43:15.326Z,75.4702
2023-04-26T08:44:23.443Z,75.5941
2023-04-26T08:45:31.505Z,74.7612
2023-04-26T08:46:39.570Z,75.3342
2023-04-26T08:47:47.451Z,75.5629
2023-04-26T08:48:55.455Z,76.1798
2023-04-26T08:50:03.520Z,76.1856
2023-04-26T08:51:11.705Z,76.4012
2023-04-26T08:52:19.903Z,75.4916
2023-04-26T08:53:27.752Z,76.1028
2023-04-26T08:54:35.811Z,76.5636
2023-04-26T08:55:43.864Z,76.9882
2023-04-26T08:56:52.061Z,76.8176
2023-04-26T08:57:59.950Z,77.3492
2023-04-26T08:59:07.958Z,77.4483
2023-04-26T09:00:16.070Z,77.4997
2023-04-26T09:01:24.107Z,77.3626
2023-04-26T09:02:32.150Z,76.8594
2023-04-26T09:03:40.226Z,76.0591
2023-04-26T09:04:48.159Z,76.3787
2023-04-26T09:05:56.303Z,76.2665
2023-04-26T09:07:04.370Z,76.4583
2023-04-26T09:08:12.437Z,75.9759
2023-04-26T09:09:20.445Z,75.7905
2023-04-26T09:10:28.517Z,76.0541
2023-04-26T09:11:36.542Z,76.6177
2023-04-26T09:12:44.730Z,75.8676
2023-04-26T09:13:52.911Z,75.4955
2023-04-26T09:15:00.830Z,75.5873
2023-04-26T09:16:08.779Z,74.8951
2023-04-26T09:17:16.651Z,75.5029
2023-04-26T09:18:24.710Z,75.6747
2023-04-26T09:19:32.794Z,74.9351
2023-04-26T09:20:41.035Z,74.5761
2023-04-26T09:21:49.006Z,73.9925
2023-04-26T09:22:57.031Z,73.5275
2023-04-26T09:24:05.153Z,73.4998
2023-04-26T09:25:13.180Z,72.8128
2023-04-26T09:26:21.164Z,72.0205
2023-04-26T09:27:29.295Z,71.2125
2023-04-26T09:28:37.208Z,71.1036
2023-04-26T09:29:45.357Z,70.2605
2023-04-26T09:30:53.519Z,70.5563
2023-04-26T09:32:01.512Z,70.7856
2023-04-26T09:33:09.568Z,70.9245
2023-04-26T09:34:17.474Z,70.8079
2023-04-26T09:35:25.572Z,69.5577
2023-04-26T09:36:33.683Z,70.1196
2023-04-26T09:37:54.346Z,69.5997
2023-04-26T09:38:54.634Z,70.0956
2023-04-26T09:40:02.759Z,70.1665
2023-04-26T09:41:10.761Z,69.3504
2023-04-26T09:42:18.902Z,69.6174
2023-04-26T09:43:26.877Z,69.2293
2023-04-26T09:44:34.952Z,67.9155
2023-04-26T09:45:42.868Z,68.7331
2023-04-26T09:46:50.962Z,69.3023
2023-04-26T09:47:59.030Z,69.4005
2023-04-26T09:49:07.264Z,69.4120
2023-04-26T09:50:15.197Z,69.9004
2023-04-26T09:51:23.280Z,69.0114
2023-04-26T09:52:31.287Z,68.4689
2023-04-26T09:53:39.410Z,68.9108
2023-04-26T09:54:47.427Z,68.5015
2023-04-26T09:55:55.468Z,68.0080
2023-04-26T09:57:03.477Z,67.0066
2023-04-26T09:58:11.475Z,66.6071
2023-04-26T09:59:19.667Z,66.5802
2023-04-26T10:00:27.539Z,66.7980
2023-04-26T10:01:35.723Z,67.2249
2023-04-26T10:02:43.760Z,67.6992
2023-04-26T10:03:51.989Z,68.0492
2023-04-26T10:05:00.203Z,68.0844
2023-04-26T10:06:07.936Z,68.7403
2023-04-26T10:07:16.016Z,66.3102
2023-04-26T10:08:24.019Z,66.1414
2023-04-26T10:09:32.102Z,66.6591
2023-04-26T10:10:40.301Z,66.4636
2023-04-26T10:11:48.187Z,66.5727
2023-04-26T10:12:56.248Z,66.3389
2023-04-26T10:14:04.514Z,65.6061
2023-04-26T10:15:12.238Z,65.5993
2023-04-26T10:16:20.355Z,63.7068
2023-04-26T10:17:28.337Z,61.3045
2023-04-26T10:18:36.550Z,58.7326
2023-04-26T10:19:44.561Z,57.8925
2023-04-26T10:20:52.625Z,57.6723
2023-04-26T10:22:00.843Z,57.0431
2023-04-26T10:23:08.697Z,56.1908
2023-04-26T10:24:16.780Z,56.0699
2023-04-26T10:25:25.029Z,55.1025
2023-04-26T10:26:32.885Z,54.1119
2023-04-26T10:27:41.070Z,53.1840
2023-04-26T10:28:49.791Z,51.9974
2023-04-26T10:30:01.764Z,51.2025
2023-04-26T10:31:09.826Z,51.0974
2023-04-26T10:32:17.929Z,51.6559
2023-04-26T10:33:26.122Z,51.0441
2023-04-26T10:34:34.102Z,52.4209
2023-04-26T10:35:42.165Z,51.3974
2023-04-26T10:36:50.258Z,49.8813
2023-04-26T10:37:58.300Z,49.6627
2023-04-26T10:39:06.403Z,50.2181
2023-04-26T10:40:14.401Z,50.4419
2023-04-26T10:41:22.508Z,52.0857
2023-04-26T10:42:30.495Z,51.8327
2023-04-26T10:43:38.547Z,50.4515
2023-04-26T10:44:46.501Z,50.6497
2023-04-26T10:45:54.529Z,50.7151
2023-04-26T10:47:02.621Z,50.3233
2023-04-26T10:48:10.874Z,50.7588
2023-04-26T10:49:18.825Z,50.9495
2023-04-26T10:50:27.029Z,51.3715
2023-04-26T10:51:34.965Z,52.9226
2023-04-26T10:52:42.985Z,52.1009
2023-04-26T10:53:51.247Z,52.6801
2023-04-26T10:54:59.152Z,50.6753
2023-04-26T10:56:07.154Z,50.7671
2023-04-26T10:57:15.270Z,51.3541
2023-04-26T10:58:23.376Z,50.6293
2023-04-26T10:59:43.543Z,50.7956
2023-04-26T11:00:44.108Z,50.9364
2023-04-26T11:01:52.408Z,49.6331
2023-04-26T11:03:00.393Z,49.0427
2023-04-26T11:04:08.586Z,47.4523
2023-04-26T11:05:16.495Z,47.4018
2023-04-26T11:06:24.502Z,47.0670
2023-04-26T11:07:32.689Z,47.6450
2023-04-26T11:08:40.616Z,47.3803
2023-04-26T11:09:48.690Z,47.3186
2023-04-26T11:10:56.720Z,49.1491
2023-04-26T11:12:04.872Z,50.1627
2023-04-26T11:13:12.794Z,50.8957
2023-04-26T11:14:20.759Z,50.9414
2023-04-26T11:15:28.830Z,49.6680
2023-04-26T11:16:37.100Z,50.4053
2023-04-26T11:17:45.088Z,50.8774
2023-04-26T11:18:53.377Z,51.3893
2023-04-26T11:20:01.176Z,50.4390
2023-04-26T11:21:09.453Z,49.0264
2023-04-26T11:22:17.350Z,50.4089
2023-04-26T11:23:25.572Z,48.5601
2023-04-26T11:24:33.552Z,46.9838
2023-04-26T11:25:41.661Z,47.2095
2023-04-26T11:26:49.568Z,45.8596
2023-04-26T11:27:57.515Z,44.4721
2023-04-26T11:29:05.583Z,45.2900
2023-04-26T11:30:13.678Z,46.0685
2023-04-26T11:31:21.839Z,47.2558
2023-04-26T11:32:29.853Z,47.3587
2023-04-26T11:33:38.005Z,45.7367
2023-04-26T11:34:45.975Z,45.0727
2023-04-26T11:35:54.103Z,45.2278
2023-04-26T11:37:02.144Z,46.1781
2023-04-26T11:38:10.140Z,44.9221
2023-04-26T11:39:18.177Z,46.1356
2023-04-26T11:40:26.387Z,47.3255
2023-04-26T11:41:34.310Z,46.0559
2023-04-26T11:42:42.273Z,47.6145
2023-04-26T11:43:50.332Z,46.7565
2023-04-26T11:44:58.443Z,46.4658
2023-04-26T11:46:06.532Z,46.4287
2023-04-26T11:47:14.665Z,46.3128
2023-04-26T11:48:22.720Z,46.4032
2023-04-26T11:49:30.699Z,46.6292
2023-04-26T11:50:38.749Z,46.9030
2023-04-26T11:51:46.817Z,46.4360
2023-04-26T11:52:54.907Z,47.7107
2023-04-26T11:54:02.907Z,47.9155
2023-04-26T11:55:11.115Z,46.9155
2023-04-26T11:56:19.056Z,46.3320
2023-04-26T11:57:26.943Z,48.1112
2023-04-26T11:58:35.038Z,48.0206
2023-04-26T11:59:43.065Z,48.5208
2023-04-26T12:00:51.245Z,49.2594
2023-04-26T12:01:59.325Z,48.3427
2023-04-26T12:03:07.600Z,46.6316
2023-04-26T12:04:15.697Z,46.6905
2023-04-26T12:05:23.520Z,46.4621
2023-04-26T12:06:31.502Z,45.5475
2023-04-26T12:07:39.531Z,46.1656
2023-04-26T12:08:47.608Z,46.1464
2023-04-26T12:09:55.681Z,45.4656
2023-04-26T12:11:03.664Z,48.7532
2023-04-26T12:12:11.716Z,48.3487
2023-04-26T12:13:19.700Z,47.6548
2023-04-26T12:14:27.775Z,49.9520
2023-04-26T12:15:35.987Z,50.5360
2023-04-26T12:16:43.950Z,48.5594
2023-04-26T12:17:52.063Z,46.1236
2023-04-26T12:19:00.095Z,45.4308
2023-04-26T12:20:08.216Z,46.1838
2023-04-26T12:21:16.230Z,46.5777
2023-04-26T12:22:24.246Z,47.4422
2023-04-26T12:23:32.301Z,48.1281
2023-04-26T12:24:40.357Z,47.3260
2023-04-26T12:25:48.464Z,47.7226
2023-04-26T12:26:56.414Z,49.1798
2023-04-26T12:28:04.458Z,49.6865
2023-04-26T12:29:12.508Z,49.7314
2023-04-26T12:30:20.674Z,49.8348
2023-04-26T12:31:28.740Z,51.2090
2023-04-26T12:32:36.816Z,50.6095
2023-04-26T12:33:44.844Z,49.6931
2023-04-26T12:34:53.065Z,49.6192
2023-04-26T12:36:00.921Z,50.3528
2023-04-26T12:37:08.986Z,49.6942
2023-04-26T12:38:17.106Z,49.0705
2023-04-26T12:39:25.227Z,48.1343
2023-04-26T12:40:33.144Z,47.8040
2023-04-26T12:41:41.088Z,45.4905
2023-04-26T12:42:49.156Z,46.5571
2023-04-26T12:43:57.242Z,45.1649
2023-04-26T12:45:05.359Z,45.7134
2023-04-26T12:46:13.699Z,44.9756
2023-04-26T12:47:21.931Z,44.4429
2023-04-26T12:48:29.518Z,43.6432
2023-04-26T12:49:37.666Z,43.0759
2023-04-26T12:50:45.646Z,42.7052
2023-04-26T12:51:53.685Z,43.2113
2023-04-26T12:53:01.969Z,43.1705
2023-04-26T12:54:09.854Z,43.8968
2023-04-26T12:55:17.960Z,44.1432
2023-04-26T12:56:25.825Z,44.0641
2023-04-26T12:57:33.896Z,43.7420
2023-04-26T12:58:41.925Z,43.8407
2023-04-26T12:59:50.077Z,43.0480
2023-04-26T13:00:58.212Z,42.8700
2023-04-26T13:02:06.344Z,42.4685
2023-04-26T13:03:14.984Z,42.5174
2023-04-26T13:04:22.451Z,40.9082
2023-04-26T13:05:30.341Z,41.3752
2023-04-26T13:06:38.626Z,39.5859
2023-04-26T13:07:46.475Z,40.5217
2023-04-26T13:08:54.549Z,38.6933
2023-04-26T13:10:02.732Z,38.8213
2023-04-26T13:11:10.553Z,37.4406
2023-04-26T13:12:18.661Z,37.2491
2023-04-26T13:13:39.976Z,37.9032
2023-04-26T13:14:39.690Z,37.9626
2023-04-26T13:15:47.780Z,39.7966
2023-04-26T13:16:55.760Z,38.7169
2023-04-26T13:18:04.095Z,38.2382
2023-04-26T13:19:11.806Z,38.6547
2023-04-26T13:20:19.961Z,38.8896
2023-04-26T13:21:28.038Z,38.7318
2023-04-26T13:22:36.095Z,40.7160
2023-04-26T13:23:44.156Z,40.6613
2023-04-26T13:24:52.142Z,39.6208
2023-04-26T13:26:00.134Z,39.8223
2023-04-26T13:27:08.225Z,40.8768
2023-04-26T13:28:16.571Z,42.1618
2023-04-26T13:29:24.519Z,41.5633
2023-04-26T13:30:32.494Z,39.8048
2023-04-26T13:31:40.517Z,39.6929
2023-04-26T13:32:48.550Z,40.5579
2023-04-26T13:33:56.634Z,41.1506
2023-04-26T13:35:04.739Z,40.8457
2023-04-26T13:36:12.747Z,41.3121
2023-04-26T13:37:20.778Z,38.9876
2023-04-26T13:38:29.810Z,38.1381
2023-04-26T13:39:41.659Z,37.1567
2023-04-26T13:40:49.768Z,37.8979
2023-04-26T13:41:57.765Z,36.8550
2023-04-26T13:43:05.927Z,36.1893